Hong Xiang 2 — BYBA — position and weather

sailwx.info

Track history (hours):
 
Tides and Currents Weather Stations Pressure Air Temp Water Temp Dewpoint Dewpoint Depression Visibility Wind Speed Wind Dir Waves Ship Positions

Hong Xiang 2

Last reported at 2016-May-29 06:27 UTC. Time now 2016-May-30 04:56 UTC.
Position N 25°03' E 118°56'.

Length 96 m; draft 5 m.

Type: Ship (hazmat cat A). MMSI: 413413000.

Date/timePositionNaut miles runAvg speedWind from/ knotsBaromVisibWave heightAir tempDewpointWater temp
2016-May-29 06:27N 25°03' E 118°56'0 0.0
2016-May-28 04:24N 25°03' E 118°55'6 5.4
2016-May-28 03:20N 25°04' E 119°02'6 7.5
2016-May-28 02:33N 24°58' E 119°03'0 0.0
2016-May-28 01:30N 24°58' E 119°03'0 0.0
2016-May-27 23:06N 24°58' E 119°03'0 0.0
2016-May-27 09:24N 24°58' E 119°03'0 0.1
2016-May-27 08:24N 24°58' E 119°03'0 0.0
2016-May-27 04:30N 24°58' E 119°03'0 0.1
2016-May-27 03:30N 24°58' E 119°03'0 0.0
2016-May-27 02:18N 24°58' E 119°03'0 0.0
2016-May-27 01:30N 24°58' E 119°03'0 0.0
2016-May-26 21:18N 24°58' E 119°03'0 0.0
2016-May-26 18:12N 24°58' E 119°03'0 0.0
2016-May-26 15:17N 24°58' E 119°03'0 0.0
2016-May-26 14:17N 24°58' E 119°03'0 0.0
2016-May-26 13:23N 24°58' E 119°03'0 0.0
2016-May-26 12:30N 24°58' E 119°03'0 0.0
2016-May-26 11:29N 24°58' E 119°03'0 0.0
2016-May-26 08:11N 24°58' E 119°03'0 0.0
2016-May-26 07:17N 24°58' E 119°03'0 0.1
2016-May-26 06:29N 24°58' E 119°03'0 0.0
2016-May-26 05:23N 24°58' E 119°03'0 0.0
2016-May-26 04:29N 24°58' E 119°03'0 0.0
2016-May-26 03:29N 24°58' E 119°03'0 0.0
2016-May-26 02:17N 24°58' E 119°03'0 0.0
2016-May-26 01:05N 24°58' E 119°03'0 0.0
2016-May-26 00:17N 24°58' E 119°03'0 0.0
2016-May-25 22:29N 24°58' E 119°03'0 0.0
2016-May-25 21:29N 24°58' E 119°03'0 0.1
2016-May-25 20:29N 24°58' E 119°03'0 0.0
2016-May-25 19:23N 24°58' E 119°03'0 0.0
2016-May-25 18:29N 24°58' E 119°03'0 0.0
2016-May-25 17:17N 24°58' E 119°03'0 0.0
2016-May-25 16:29N 24°58' E 119°03'0 0.0
2016-May-25 15:23N 24°58' E 119°03'0 0.1
2016-May-25 14:29N 24°58' E 119°03'0 0.0
2016-May-25 13:29N 24°58' E 119°03'0 0.0
2016-May-25 12:17N 24°58' E 119°03'0 0.0
2016-May-25 11:29N 24°58' E 119°03'0 0.1
2016-May-25 10:29N 24°58' E 119°03'0 0.0
2016-May-25 09:29N 24°58' E 119°03'0 0.0
2016-May-25 08:29N 24°58' E 119°03'0 0.1
2016-May-25 07:23N 24°58' E 119°03'0 0.0
2016-May-25 06:23N 24°58' E 119°03'0 0.0
2016-May-25 05:23N 24°58' E 119°03'0 0.0
2016-May-25 04:29N 24°58' E 119°03'0 0.0
2016-May-25 03:29N 24°58' E 119°03'0 0.0
2016-May-25 02:29N 24°58' E 119°03'0 0.0
2016-May-25 01:29N 24°58' E 119°03'0 0.0
2016-May-24 23:29N 24°58' E 119°03'0 0.1
2016-May-24 22:23N 24°58' E 119°03'0 0.0
2016-May-24 21:29N 24°58' E 119°03'0 0.0
2016-May-24 20:23N 24°58' E 119°03'0 0.0
2016-May-24 18:23N 24°58' E 119°03'0 0.0
2016-May-24 17:11N 24°58' E 119°03'0 0.0
2016-May-24 11:29N 24°58' E 119°03'0 0.1
2016-May-24 10:05N 24°58' E 119°03'0 0.0
2016-May-24 08:29N 24°58' E 119°03'0 0.1
2016-May-24 07:29N 24°58' E 119°03'0 0.0
2016-May-24 06:29N 24°58' E 119°03'0 0.1
2016-May-24 05:23N 24°58' E 119°03'0 0.0
2016-May-24 04:17N 24°58' E 119°03'0 0.0
2016-May-23 09:11N 24°58' E 119°03'0 0.0
2016-May-23 08:29N 24°58' E 119°03'0 0.0
2016-May-23 07:29N 24°58' E 119°03'0 0.0
2016-May-23 06:17N 24°58' E 119°03'0 0.0
2016-May-23 04:29N 24°58' E 119°03'0 0.0
2016-May-23 02:29N 24°58' E 119°03'0 0.0
2016-May-23 01:23N 24°58' E 119°03'0 0.0
2016-May-23 00:23N 24°58' E 119°03'0 0.1
2016-May-22 23:23N 24°58' E 119°03'0 0.2
2016-May-22 22:17N 24°58' E 119°03'0 0.0
2016-May-22 21:23N 24°58' E 119°03'0 0.0
2016-May-22 19:29N 24°58' E 119°03'4 4.0
2016-May-22 18:33N 24°54' E 119°03'9 8.6
2016-May-22 17:33N 24°47' E 118°59'9 9.2
2016-May-22 16:33N 24°40' E 118°52'80 9.9
2016-May-22 08:32N 23°47' E 117°47'9 8.9
2016-May-22 07:33N 23°42' E 117°39'5110.3
2016-May-22 02:33N 23°17' E 116°50'10 9.7
2016-May-22 01:33N 23°21' E 116°40'9 8.7
2016-May-22 00:33N 23°26' E 116°32'2 0.1
2016-May-21 01:29N 23°27' E 116°30'7 7.3
2016-May-21 00:33N 23°21' E 116°35'9 8.6
2016-May-20 23:33N 23°20' E 116°44'8 7.7
2016-May-20 22:31N 23°18' E 116°52'0 0.1
2016-May-20 21:23N 23°18' E 116°52'3 2.7
2016-May-20 20:21N 23°18' E 116°55'42 8.6
2016-May-20 15:30N 23°39' E 117°35'57 8.9
2016-May-20 09:04N 24°14' E 118°24'35 9.8
2016-May-20 05:32N 24°37' E 118°53'1010.3
2016-May-20 04:33N 24°44' E 119°01'  
Track history (hours):
 
Tides and Currents Weather Stations Pressure Air Temp Water Temp Dewpoint Dewpoint Depression Visibility Wind Speed Wind Dir Waves Ship Positions

Hong Xiang 2

Last reported at 2016-May-29 06:27 UTC. Time now 2016-May-30 04:56 UTC.
Position N 25°03' E 118°56'.

Length 96 m; draft 5 m.

Type: Ship (hazmat cat A). MMSI: 413413000.

Date/timePositionNaut miles runAvg speedWind from/ knotsBaromVisibWave heightAir tempDewpointWater temp
2016-May-29 06:27N 25°03' E 118°56'0 0.0
2016-May-28 04:24N 25°03' E 118°55'6 5.4
2016-May-28 03:20N 25°04' E 119°02'6 7.5
2016-May-28 02:33N 24°58' E 119°03'0 0.0
2016-May-28 01:30N 24°58' E 119°03'0 0.0
2016-May-27 23:06N 24°58' E 119°03'0 0.0
2016-May-27 09:24N 24°58' E 119°03'0 0.1
2016-May-27 08:24N 24°58' E 119°03'0 0.0
2016-May-27 04:30N 24°58' E 119°03'0 0.1
2016-May-27 03:30N 24°58' E 119°03'0 0.0
2016-May-27 02:18N 24°58' E 119°03'0 0.0
2016-May-27 01:30N 24°58' E 119°03'0 0.0
2016-May-26 21:18N 24°58' E 119°03'0 0.0
2016-May-26 18:12N 24°58' E 119°03'0 0.0
2016-May-26 15:17N 24°58' E 119°03'0 0.0
2016-May-26 14:17N 24°58' E 119°03'0 0.0
2016-May-26 13:23N 24°58' E 119°03'0 0.0
2016-May-26 12:30N 24°58' E 119°03'0 0.0
2016-May-26 11:29N 24°58' E 119°03'0 0.0
2016-May-26 08:11N 24°58' E 119°03'0 0.0
2016-May-26 07:17N 24°58' E 119°03'0 0.1
2016-May-26 06:29N 24°58' E 119°03'0 0.0
2016-May-26 05:23N 24°58' E 119°03'0 0.0
2016-May-26 04:29N 24°58' E 119°03'0 0.0
2016-May-26 03:29N 24°58' E 119°03'0 0.0
2016-May-26 02:17N 24°58' E 119°03'0 0.0
2016-May-26 01:05N 24°58' E 119°03'0 0.0
2016-May-26 00:17N 24°58' E 119°03'0 0.0
2016-May-25 22:29N 24°58' E 119°03'0 0.0
2016-May-25 21:29N 24°58' E 119°03'0 0.1
2016-May-25 20:29N 24°58' E 119°03'0 0.0
2016-May-25 19:23N 24°58' E 119°03'0 0.0
2016-May-25 18:29N 24°58' E 119°03'0 0.0
2016-May-25 17:17N 24°58' E 119°03'0 0.0
2016-May-25 16:29N 24°58' E 119°03'0 0.0
2016-May-25 15:23N 24°58' E 119°03'0 0.1
2016-May-25 14:29N 24°58' E 119°03'0 0.0
2016-May-25 13:29N 24°58' E 119°03'0 0.0
2016-May-25 12:17N 24°58' E 119°03'0 0.0
2016-May-25 11:29N 24°58' E 119°03'0 0.1
2016-May-25 10:29N 24°58' E 119°03'0 0.0
2016-May-25 09:29N 24°58' E 119°03'0 0.0
2016-May-25 08:29N 24°58' E 119°03'0 0.1
2016-May-25 07:23N 24°58' E 119°03'0 0.0
2016-May-25 06:23N 24°58' E 119°03'0 0.0
2016-May-25 05:23N 24°58' E 119°03'0 0.0
2016-May-25 04:29N 24°58' E 119°03'0 0.0
2016-May-25 03:29N 24°58' E 119°03'0 0.0
2016-May-25 02:29N 24°58' E 119°03'0 0.0
2016-May-25 01:29N 24°58' E 119°03'0 0.0
2016-May-24 23:29N 24°58' E 119°03'0 0.1
2016-May-24 22:23N 24°58' E 119°03'0 0.0
2016-May-24 21:29N 24°58' E 119°03'0 0.0
2016-May-24 20:23N 24°58' E 119°03'0 0.0
2016-May-24 18:23N 24°58' E 119°03'0 0.0
2016-May-24 17:11N 24°58' E 119°03'0 0.0
2016-May-24 11:29N 24°58' E 119°03'0 0.1
2016-May-24 10:05N 24°58' E 119°03'0 0.0
2016-May-24 08:29N 24°58' E 119°03'0 0.1
2016-May-24 07:29N 24°58' E 119°03'0 0.0
2016-May-24 06:29N 24°58' E 119°03'0 0.1
2016-May-24 05:23N 24°58' E 119°03'0 0.0
2016-May-24 04:17N 24°58' E 119°03'0 0.0
2016-May-23 09:11N 24°58' E 119°03'0 0.0
2016-May-23 08:29N 24°58' E 119°03'0 0.0
2016-May-23 07:29N 24°58' E 119°03'0 0.0
2016-May-23 06:17N 24°58' E 119°03'0 0.0
2016-May-23 04:29N 24°58' E 119°03'0 0.0
2016-May-23 02:29N 24°58' E 119°03'0 0.0
2016-May-23 01:23N 24°58' E 119°03'0 0.0
2016-May-23 00:23N 24°58' E 119°03'0 0.1
2016-May-22 23:23N 24°58' E 119°03'0 0.2
2016-May-22 22:17N 24°58' E 119°03'0 0.0
2016-May-22 21:23N 24°58' E 119°03'0 0.0
2016-May-22 19:29N 24°58' E 119°03'4 4.0
2016-May-22 18:33N 24°54' E 119°03'9 8.6
2016-May-22 17:33N 24°47' E 118°59'9 9.2
2016-May-22 16:33N 24°40' E 118°52'80 9.9
2016-May-22 08:32N 23°47' E 117°47'9 8.9
2016-May-22 07:33N 23°42' E 117°39'5110.3
2016-May-22 02:33N 23°17' E 116°50'10 9.7
2016-May-22 01:33N 23°21' E 116°40'9 8.7
2016-May-22 00:33N 23°26' E 116°32'2 0.1
2016-May-21 01:29N 23°27' E 116°30'7 7.3
2016-May-21 00:33N 23°21' E 116°35'9 8.6
2016-May-20 23:33N 23°20' E 116°44'8 7.7
2016-May-20 22:31N 23°18' E 116°52'0 0.1
2016-May-20 21:23N 23°18' E 116°52'3 2.7
2016-May-20 20:21N 23°18' E 116°55'42 8.6
2016-May-20 15:30N 23°39' E 117°35'57 8.9
2016-May-20 09:04N 24°14' E 118°24'35 9.8
2016-May-20 05:32N 24°37' E 118°53'1010.3
2016-May-20 04:33N 24°44' E 119°01'  

Dump ship's entire track history